Time;durP1;ratioP1;P1;durP2;ratioP2;P2;SDS_P1;SDS_P2;PMS_P1;PMS_P2;Temp;Humidity;BMP_temperature;BMP_pressure;BME280_temperature;BME280_humidity;BME280_pressure;Samples;Min_cycle;Max_cycle;Signal;HPM_P1;HPM_P2
2022/02/26 00:00:44;;;;;;;5.83;1.57;;;;;;;;;;4482501;28;20070;-59
2022/02/26 00:02:54;;;;;;;4.85;1.58;;;;;;;;;;4482718;28;20034;-61
2022/02/26 00:05:05;;;;;;;6.50;1.83;;;;;;;;;;4481598;28;20485;-61
2022/02/26 00:07:16;;;;;;;3.63;1.53;;;;;;;;;;4482799;28;20116;-61
2022/02/26 00:09:26;;;;;;;3.57;1.50;;;;;;;;;;4478590;28;20638;-61
2022/02/26 00:11:37;;;;;;;5.23;1.73;;;;;;;;;;4480292;28;20046;-61
2022/02/26 00:13:47;;;;;;;5.43;1.93;;;;;;;;;;4483463;28;20627;-60
2022/02/26 00:15:59;;;;;;;4.43;1.70;;;;;;;;;;4481442;28;20043;-61
2022/02/26 00:18:09;;;;;;;;;;;;;;;;;;4480963;28;20063;-61
2022/02/26 00:20:20;;;;;;;4.55;1.85;;;;;;;;;;4482537;28;19961;-61
2022/02/26 00:22:30;;;;;;;5.57;1.93;;;;;;;;;;4481218;28;40380;-61
2022/02/26 00:24:41;;;;;;;3.83;1.53;;;;;;;;;;4480490;28;20039;-61
2022/02/26 00:26:51;;;;;;;5.13;1.60;;;;;;;;;;4468485;28;20038;-61
2022/02/26 00:29:03;;;;;;;5.93;2.03;;;;;;;;;;4464271;28;20066;-61
2022/02/26 00:31:15;;;;;;;5.15;1.70;;;;;;;;;;4481397;28;20030;-61
2022/02/26 00:33:26;;;;;;;4.85;1.50;;;;;;;;;;4482613;28;20035;-61
2022/02/26 00:35:36;;;;;;;5.13;1.77;;;;;;;;;;4479136;28;20026;-61
2022/02/26 00:37:48;;;;;;;5.57;1.95;;;;;;;;;;4480551;28;20081;-61
2022/02/26 00:39:58;;;;;;;4.43;1.70;;;;;;;;;;4483327;28;20137;-61
2022/02/26 00:42:09;;;;;;;4.60;1.50;;;;;;;;;;4487060;28;26534;-61
2022/02/26 00:44:20;;;;;;;4.18;1.55;;;;;;;;;;4482030;28;20038;-61
2022/02/26 00:46:30;;;;;;;4.93;1.90;;;;;;;;;;4486366;28;20897;-61
2022/02/26 00:51:10;;;;;;;6.55;1.90;;;;;;;;;;4479242;28;20054;-61
2022/02/26 00:53:21;;;;;;;5.47;1.80;;;;;;;;;;4481270;28;20027;-61
2022/02/26 00:55:31;;;;;;;6.43;2.20;;;;;;;;;;4481814;28;20587;-61
2022/02/26 00:57:42;;;;;;;5.17;2.13;;;;;;;;;;4483244;28;20042;-61
2022/02/26 00:59:52;;;;;;;4.40;1.87;;;;;;;;;;4481699;28;20035;-61
2022/02/26 01:02:05;;;;;;;4.83;1.70;;;;;;;;;;4480373;28;20057;-61
2022/02/26 01:04:15;;;;;;;5.15;1.90;;;;;;;;;;4480517;28;20656;-61
2022/02/26 01:06:25;;;;;;;4.10;1.43;;;;;;;;;;4481641;28;30392;-61
2022/02/26 01:08:36;;;;;;;6.13;2.07;;;;;;;;;;4482216;28;20098;-61
2022/02/26 01:10:47;;;;;;;5.93;1.70;;;;;;;;;;4482815;28;20566;-61
2022/02/26 01:12:58;;;;;;;5.37;2.07;;;;;;;;;;4479112;28;43010;-61
2022/02/26 01:15:08;;;;;;;5.80;1.93;;;;;;;;;;4478988;28;20034;-61
2022/02/26 01:17:20;;;;;;;5.60;2.10;;;;;;;;;;4481642;28;20030;-61
2022/02/26 01:19:30;;;;;;;5.15;2.00;;;;;;;;;;4480230;28;20035;-61
2022/02/26 01:21:40;;;;;;;6.13;2.10;;;;;;;;;;4477392;28;20034;-61
2022/02/26 01:23:51;;;;;;;4.77;1.97;;;;;;;;;;4479470;28;20043;-61
2022/02/26 01:26:02;;;;;;;4.27;1.73;;;;;;;;;;4482372;28;21150;-61
2022/02/26 01:28:12;;;;;;;3.93;1.67;;;;;;;;;;4480432;28;20415;-61
2022/02/26 01:30:23;;;;;;;5.33;1.83;;;;;;;;;;4479146;28;36660;-61
2022/02/26 01:32:33;;;;;;;4.30;1.40;;;;;;;;;;4477877;28;20039;-61
2022/02/26 01:34:44;;;;;;;4.57;1.70;;;;;;;;;;4463195;28;20039;-61
2022/02/26 01:36:54;;;;;;;5.30;1.73;;;;;;;;;;4478978;28;20042;-61
2022/02/26 01:39:07;;;;;;;4.00;1.60;;;;;;;;;;4478446;28;20683;-61
2022/02/26 01:41:17;;;;;;;3.25;1.45;;;;;;;;;;4480213;28;20045;-62
2022/02/26 01:43:28;;;;;;;6.13;1.70;;;;;;;;;;4481184;28;20045;-61
2022/02/26 01:45:39;;;;;;;5.57;1.90;;;;;;;;;;4479633;28;20038;-61
2022/02/26 01:47:49;;;;;;;4.83;2.03;;;;;;;;;;4480727;28;20082;-61
2022/02/26 01:49:59;;;;;;;5.97;1.90;;;;;;;;;;4479001;28;22269;-61
2022/02/26 01:52:11;;;;;;;5.37;1.90;;;;;;;;;;4479904;28;20041;-60
2022/02/26 01:54:21;;;;;;;4.72;1.55;;;;;;;;;;4482507;28;20046;-60
2022/02/26 01:56:33;;;;;;;4.53;1.53;;;;;;;;;;4479240;28;20058;-60
2022/02/26 01:58:43;;;;;;;5.57;1.80;;;;;;;;;;4478189;28;20145;-60
2022/02/26 02:00:54;;;;;;;5.50;2.00;;;;;;;;;;4478715;28;20445;-60
2022/02/26 02:03:05;;;;;;;6.32;2.03;;;;;;;;;;4480722;28;20030;-60
2022/02/26 02:05:15;;;;;;;5.13;1.77;;;;;;;;;;4479769;28;20562;-60
2022/02/26 02:07:25;;;;;;;4.63;1.80;;;;;;;;;;4479077;28;20035;-60
2022/02/26 02:09:36;;;;;;;4.77;1.77;;;;;;;;;;4480266;28;20058;-59
2022/02/26 02:11:47;;;;;;;5.67;1.80;;;;;;;;;;4481272;28;20037;-61
2022/02/26 02:13:57;;;;;;;6.10;1.90;;;;;;;;;;4476804;28;20371;-60
2022/02/26 02:16:08;;;;;;;4.87;1.97;;;;;;;;;;4477959;28;20113;-60
2022/02/26 02:18:18;;;;;;;5.83;2.00;;;;;;;;;;4480564;28;20046;-60
2022/02/26 02:20:29;;;;;;;5.93;2.20;;;;;;;;;;4481020;28;20089;-60
2022/02/26 02:22:39;;;;;;;5.37;1.87;;;;;;;;;;4478617;28;20034;-60
2022/02/26 02:24:49;;;;;;;6.67;1.87;;;;;;;;;;4481491;28;20088;-60
2022/02/26 02:27:01;;;;;;;4.07;1.50;;;;;;;;;;4470003;28;20042;-60
2022/02/26 02:29:11;;;;;;;5.90;1.85;;;;;;;;;;4484476;28;20038;-60
2022/02/26 02:31:22;;;;;;;5.23;1.93;;;;;;;;;;4479674;28;27286;-60
2022/02/26 02:33:41;;;;;;;4.70;1.80;;;;;;;;;;4480790;28;20057;-60
2022/02/26 02:35:51;;;;;;;3.28;1.30;;;;;;;;;;4480026;28;20039;-60
2022/02/26 02:38:06;;;;;;;3.83;1.27;;;;;;;;;;4477265;28;20051;-60
2022/02/26 02:40:16;;;;;;;5.63;1.80;;;;;;;;;;4477148;28;20154;-60
2022/02/26 02:42:27;;;;;;;3.97;1.37;;;;;;;;;;4478792;28;20586;-60
2022/02/26 02:44:37;;;;;;;5.20;1.70;;;;;;;;;;4480438;28;20072;-60
2022/02/26 02:46:47;;;;;;;5.80;1.80;;;;;;;;;;4480197;28;20062;-60
2022/02/26 02:48:58;;;;;;;5.70;1.80;;;;;;;;;;4478478;28;20050;-60
2022/02/26 02:51:08;;;;;;;4.43;1.50;;;;;;;;;;4478839;28;28294;-60
2022/02/26 02:53:19;;;;;;;5.27;1.97;;;;;;;;;;4481989;28;20066;-60
2022/02/26 02:55:30;;;;;;;4.97;1.55;;;;;;;;;;4477329;28;20027;-60
2022/02/26 02:57:44;;;;;;;4.37;1.60;;;;;;;;;;4481978;28;20162;-60
2022/02/26 02:59:54;;;;;;;5.90;1.80;;;;;;;;;;4479577;28;20074;-60
2022/02/26 03:02:05;;;;;;;6.03;1.63;;;;;;;;;;4479083;28;20113;-60
2022/02/26 03:04:15;;;;;;;4.80;1.80;;;;;;;;;;4478267;28;20072;-60
2022/02/26 03:06:27;;;;;;;5.80;1.70;;;;;;;;;;4482992;28;20487;-60
2022/02/26 03:08:37;;;;;;;5.72;1.90;;;;;;;;;;4477057;28;20084;-59
2022/02/26 03:10:47;;;;;;;6.00;1.80;;;;;;;;;;4478332;28;20124;-60
2022/02/26 03:12:58;;;;;;;5.57;1.97;;;;;;;;;;4476819;28;20034;-60
2022/02/26 03:15:09;;;;;;;6.00;1.73;;;;;;;;;;4480984;28;33273;-60
2022/02/26 03:17:19;;;;;;;4.00;1.50;;;;;;;;;;4481300;28;20102;-60
2022/02/26 03:19:30;;;;;;;5.13;1.97;;;;;;;;;;4476384;28;20033;-60
2022/02/26 03:21:40;;;;;;;4.63;1.77;;;;;;;;;;4479958;28;20030;-59
2022/02/26 03:23:51;;;;;;;4.30;1.53;;;;;;;;;;4478326;28;20098;-60
2022/02/26 03:26:02;;;;;;;6.03;1.90;;;;;;;;;;4479844;28;20065;-61
2022/02/26 03:28:12;;;;;;;6.03;1.90;;;;;;;;;;4478831;28;20035;-60
2022/02/26 03:30:22;;;;;;;5.40;1.77;;;;;;;;;;4476278;28;31091;-60
2022/02/26 03:32:33;;;;;;;5.63;1.77;;;;;;;;;;4477488;28;20050;-60
2022/02/26 03:34:44;;;;;;;5.23;1.83;;;;;;;;;;4479308;28;20054;-60
2022/02/26 03:36:57;;;;;;;5.30;1.67;;;;;;;;;;4477221;28;20066;-60
2022/02/26 03:39:07;;;;;;;4.03;1.65;;;;;;;;;;4478690;28;20751;-61
2022/02/26 03:41:17;;;;;;;5.87;1.80;;;;;;;;;;4478934;28;20105;-60
2022/02/26 03:43:28;;;;;;;3.97;1.63;;;;;;;;;;4476206;28;20034;-60
2022/02/26 03:45:38;;;;;;;4.23;1.60;;;;;;;;;;4483596;28;20474;-61
2022/02/26 03:47:49;;;;;;;4.20;1.70;;;;;;;;;;4483490;28;20039;-61
2022/02/26 03:49:59;;;;;;;4.30;1.70;;;;;;;;;;4482411;28;20034;-61
2022/02/26 03:52:10;;;;;;;6.70;2.10;;;;;;;;;;4482560;28;31752;-61
2022/02/26 03:54:21;;;;;;;5.33;1.93;;;;;;;;;;4482049;28;21048;-61
2022/02/26 03:56:31;;;;;;;5.20;1.80;;;;;;;;;;4481565;28;20034;-61
2022/02/26 03:58:42;;;;;;;6.47;1.93;;;;;;;;;;4482821;28;20039;-61
2022/02/26 04:00:53;;;;;;;5.53;1.90;;;;;;;;;;4482529;28;20038;-61
2022/02/26 04:03:03;;;;;;;3.13;1.50;;;;;;;;;;4489083;28;20034;-61
2022/02/26 04:05:14;;;;;;;5.23;1.93;;;;;;;;;;4482515;28;20415;-61
2022/02/26 04:07:24;;;;;;;5.93;2.13;;;;;;;;;;4480826;28;20041;-60
2022/02/26 04:09:34;;;;;;;4.37;1.83;;;;;;;;;;4483660;28;20125;-61
2022/02/26 04:11:45;;;;;;;4.23;1.90;;;;;;;;;;4480373;28;20039;-61
2022/02/26 04:13:55;;;;;;;5.43;2.20;;;;;;;;;;4481773;28;20026;-60
2022/02/26 04:16:06;;;;;;;5.00;1.97;;;;;;;;;;4482024;28;20124;-61
2022/02/26 04:18:17;;;;;;;4.97;1.83;;;;;;;;;;4485794;28;20049;-61
2022/02/26 04:20:27;;;;;;;4.97;1.60;;;;;;;;;;4481764;28;20501;-61
2022/02/26 04:22:38;;;;;;;5.80;1.90;;;;;;;;;;4484167;28;20486;-61
2022/02/26 04:24:48;;;;;;;5.53;1.80;;;;;;;;;;4479842;28;20126;-61
2022/02/26 04:26:59;;;;;;;5.50;2.10;;;;;;;;;;4482734;28;20180;-61
2022/02/26 04:29:09;;;;;;;7.87;2.20;;;;;;;;;;4481518;28;20065;-61
2022/02/26 04:31:21;;;;;;;5.40;1.90;;;;;;;;;;4481036;28;26247;-61
2022/02/26 04:33:31;;;;;;;5.78;1.80;;;;;;;;;;4480220;28;20035;-60
2022/02/26 04:35:42;;;;;;;5.33;2.20;;;;;;;;;;4480405;28;31706;-61
2022/02/26 04:37:52;;;;;;;4.77;2.00;;;;;;;;;;4478024;28;20070;-61
2022/02/26 04:40:03;;;;;;;3.97;1.67;;;;;;;;;;4480743;28;20035;-61
2022/02/26 04:42:14;;;;;;;5.35;2.15;;;;;;;;;;4481831;28;20042;-61
2022/02/26 04:44:24;;;;;;;6.20;2.30;;;;;;;;;;4482053;28;20356;-61
2022/02/26 04:46:35;;;;;;;5.63;2.13;;;;;;;;;;4480464;28;20319;-61
2022/02/26 04:48:45;;;;;;;5.00;2.00;;;;;;;;;;4481290;28;20134;-61
2022/02/26 04:50:55;;;;;;;6.10;2.23;;;;;;;;;;4480954;28;22573;-61
2022/02/26 04:53:06;;;;;;;6.43;2.10;;;;;;;;;;4481645;28;20046;-61
2022/02/26 04:55:16;;;;;;;4.87;1.90;;;;;;;;;;4477216;28;20066;-61
2022/02/26 04:57:27;;;;;;;5.87;2.27;;;;;;;;;;4480532;28;20099;-60
2022/02/26 04:59:37;;;;;;;5.63;2.20;;;;;;;;;;4480947;28;20158;-61
2022/02/26 05:01:48;;;;;;;4.80;1.90;;;;;;;;;;4479759;28;20117;-61
2022/02/26 05:03:58;;;;;;;4.53;1.90;;;;;;;;;;4478916;28;20542;-60
2022/02/26 05:06:08;;;;;;;6.27;2.10;;;;;;;;;;4480063;28;27748;-61
2022/02/26 05:08:19;;;;;;;5.30;1.83;;;;;;;;;;4480426;28;20171;-61
2022/02/26 05:10:30;;;;;;;4.77;1.90;;;;;;;;;;4480293;28;20112;-61
2022/02/26 05:12:42;;;;;;;5.45;2.22;;;;;;;;;;4486730;28;20039;-62
2022/02/26 05:14:54;;;;;;;4.90;2.00;;;;;;;;;;4480602;28;20035;-61
2022/02/26 05:17:04;;;;;;;4.30;1.95;;;;;;;;;;4478682;28;20034;-61
2022/02/26 05:19:15;;;;;;;6.97;2.40;;;;;;;;;;4478298;28;30623;-61
2022/02/26 05:21:25;;;;;;;5.80;2.20;;;;;;;;;;4484259;28;20097;-61
2022/02/26 05:23:36;;;;;;;5.80;2.20;;;;;;;;;;4481568;28;20514;-61
2022/02/26 05:25:46;;;;;;;7.33;2.37;;;;;;;;;;4480198;28;20029;-60
2022/02/26 05:27:57;;;;;;;5.90;2.20;;;;;;;;;;4479312;28;20064;-61
2022/02/26 05:30:11;;;;;;;5.87;2.13;;;;;;;;;;4478965;28;20438;-61
2022/02/26 05:32:21;;;;;;;4.38;2.03;;;;;;;;;;4481792;28;20129;-61
2022/02/26 05:34:32;;;;;;;6.60;2.83;;;;;;;;;;4479551;28;43695;-61
2022/02/26 05:36:42;;;;;;;6.10;2.50;;;;;;;;;;4477305;28;20131;-61
2022/02/26 05:38:53;;;;;;;5.27;2.10;;;;;;;;;;4482149;28;20038;-61
2022/02/26 05:41:05;;;;;;;4.33;2.07;;;;;;;;;;4483000;28;20066;-61
2022/02/26 05:43:15;;;;;;;7.22;2.53;;;;;;;;;;4466400;28;20106;-61
2022/02/26 05:45:26;;;;;;;6.23;2.60;;;;;;;;;;4479256;28;21677;-61
2022/02/26 05:47:36;;;;;;;6.27;2.73;;;;;;;;;;4479625;28;20189;-61
2022/02/26 05:49:46;;;;;;;6.00;2.43;;;;;;;;;;4479333;28;20041;-60
2022/02/26 05:51:57;;;;;;;6.17;2.27;;;;;;;;;;4478878;28;20049;-62
2022/02/26 05:54:07;;;;;;;5.97;2.43;;;;;;;;;;4478866;28;20032;-61
2022/02/26 05:56:18;;;;;;;6.47;2.40;;;;;;;;;;4479887;28;24970;-61
2022/02/26 05:58:28;;;;;;;6.83;2.73;;;;;;;;;;4476828;28;20102;-60
2022/02/26 06:00:39;;;;;;;7.07;2.47;;;;;;;;;;4481562;28;20073;-63
2022/02/26 06:02:49;;;;;;;7.67;2.53;;;;;;;;;;4481909;28;20030;-61
2022/02/26 06:05:00;;;;;;;6.53;2.60;;;;;;;;;;4465416;28;20049;-61
2022/02/26 06:07:11;;;;;;;6.97;2.83;;;;;;;;;;4480496;28;20034;-61
2022/02/26 06:09:21;;;;;;;6.57;2.57;;;;;;;;;;4480916;28;28743;-61
2022/02/26 06:11:32;;;;;;;7.30;2.70;;;;;;;;;;4477813;28;20042;-60
2022/02/26 06:13:42;;;;;;;6.57;2.50;;;;;;;;;;4482941;28;20641;-62
2022/02/26 06:15:52;;;;;;;5.77;2.50;;;;;;;;;;4479272;28;20125;-61
2022/02/26 06:18:03;;;;;;;6.03;3.00;;;;;;;;;;4480720;28;20342;-61
2022/02/26 06:20:13;;;;;;;5.77;2.47;;;;;;;;;;4482025;28;20035;-61
2022/02/26 06:22:24;;;;;;;6.73;2.50;;;;;;;;;;4480342;28;20104;-61
2022/02/26 06:24:35;;;;;;;4.93;2.50;;;;;;;;;;4480766;28;20045;-61
2022/02/26 06:26:45;;;;;;;5.57;2.53;;;;;;;;;;4477229;28;20632;-61
2022/02/26 06:28:56;;;;;;;6.67;3.20;;;;;;;;;;4480209;28;20396;-61
2022/02/26 06:31:06;;;;;;;6.20;3.60;;;;;;;;;;4478883;28;20173;-61
2022/02/26 06:33:17;;;;;;;5.60;3.00;;;;;;;;;;4480163;28;20034;-61
2022/02/26 06:35:27;;;;;;;6.00;2.60;;;;;;;;;;4479046;28;26846;-62
2022/02/26 06:37:38;;;;;;;7.10;2.67;;;;;;;;;;4478833;28;20398;-61
2022/02/26 06:39:49;;;;;;;4.75;2.17;;;;;;;;;;4478675;28;20615;-61
2022/02/26 06:41:59;;;;;;;4.87;2.37;;;;;;;;;;4482102;28;36900;-61
2022/02/26 06:44:10;;;;;;;8.20;3.10;;;;;;;;;;4477607;28;20058;-61
2022/02/26 06:46:20;;;;;;;5.37;2.17;;;;;;;;;;4477235;28;20503;-61
2022/02/26 06:48:31;;;;;;;4.97;2.40;;;;;;;;;;4479510;28;20038;-61
2022/02/26 06:50:41;;;;;;;4.87;1.93;;;;;;;;;;4479346;28;20448;-61
2022/02/26 06:52:52;;;;;;;5.87;2.50;;;;;;;;;;4477921;28;20078;-61
2022/02/26 06:55:03;;;;;;;5.60;2.60;;;;;;;;;;4478188;28;20037;-61
2022/02/26 06:57:13;;;;;;;7.22;2.33;;;;;;;;;;4476431;28;20046;-61
2022/02/26 06:59:24;;;;;;;6.33;2.90;;;;;;;;;;4479728;28;20074;-61
2022/02/26 07:01:34;;;;;;;8.13;3.77;;;;;;;;;;4476413;28;20034;-61
2022/02/26 07:03:45;;;;;;;6.57;3.23;;;;;;;;;;4478321;28;20046;-61
2022/02/26 07:05:55;;;;;;;8.43;3.20;;;;;;;;;;4480839;28;20134;-61
2022/02/26 07:08:06;;;;;;;4.47;2.20;;;;;;;;;;4479459;28;31061;-61
2022/02/26 07:10:16;;;;;;;4.73;2.00;;;;;;;;;;4482311;28;30979;-61
2022/02/26 07:12:27;;;;;;;4.10;1.73;;;;;;;;;;4479441;28;20041;-61
2022/02/26 07:14:37;;;;;;;3.90;1.57;;;;;;;;;;4477494;28;20552;-61
2022/02/26 07:16:48;;;;;;;4.40;1.90;;;;;;;;;;4479514;28;20042;-61
2022/02/26 07:18:58;;;;;;;3.50;1.70;;;;;;;;;;4479063;28;20100;-60
2022/02/26 07:21:08;;;;;;;3.37;1.80;;;;;;;;;;4481932;28;20052;-61
2022/02/26 07:23:19;;;;;;;2.93;1.87;;;;;;;;;;4482784;28;20072;-61
2022/02/26 07:25:30;;;;;;;4.77;2.30;;;;;;;;;;4481628;28;20108;-61
2022/02/26 07:27:40;;;;;;;4.40;2.00;;;;;;;;;;4482095;28;20403;-61
2022/02/26 07:29:51;;;;;;;4.80;2.17;;;;;;;;;;4484378;28;20542;-61
2022/02/26 07:32:01;;;;;;;6.27;2.40;;;;;;;;;;4481896;28;31660;-61
2022/02/26 07:34:12;;;;;;;5.63;2.20;;;;;;;;;;4487841;28;20050;-61
2022/02/26 07:36:23;;;;;;;6.80;2.43;;;;;;;;;;4480236;28;20073;-60
2022/02/26 07:38:34;;;;;;;5.25;2.00;;;;;;;;;;4498833;28;20064;-60
2022/02/26 07:40:44;;;;;;;5.25;2.17;;;;;;;;;;4481019;28;20571;-59
2022/02/26 07:42:55;;;;;;;6.10;2.20;;;;;;;;;;4479622;28;25771;-60
2022/02/26 07:45:06;;;;;;;5.77;2.00;;;;;;;;;;4482184;28;20495;-60
2022/02/26 07:47:16;;;;;;;6.82;2.63;;;;;;;;;;4484260;28;20277;-59
2022/02/26 07:49:27;;;;;;;4.70;2.23;;;;;;;;;;4485096;28;20078;-61
2022/02/26 07:51:38;;;;;;;6.10;2.70;;;;;;;;;;4482279;28;20046;-61
2022/02/26 07:53:48;;;;;;;4.60;2.43;;;;;;;;;;4480411;28;20039;-61
2022/02/26 07:55:58;;;;;;;6.07;2.60;;;;;;;;;;4467919;28;20145;-61
2022/02/26 07:58:09;;;;;;;6.07;2.60;;;;;;;;;;4485008;28;20666;-61
2022/02/26 08:00:20;;;;;;;5.73;2.43;;;;;;;;;;4482217;28;20046;-61
2022/02/26 08:02:30;;;;;;;3.83;2.00;;;;;;;;;;4483470;28;20157;-61
2022/02/26 08:04:40;;;;;;;6.57;2.50;;;;;;;;;;4480465;28;20461;-60
2022/02/26 08:06:51;;;;;;;4.40;2.10;;;;;;;;;;4484052;28;20123;-61
2022/02/26 08:09:01;;;;;;;4.27;2.10;;;;;;;;;;4481147;28;20158;-61
2022/02/26 08:11:12;;;;;;;5.50;2.53;;;;;;;;;;4483679;28;20117;-62
2022/02/26 08:13:22;;;;;;;5.40;2.23;;;;;;;;;;4486031;28;20042;-61
2022/02/26 08:15:33;;;;;;;6.90;2.30;;;;;;;;;;4484253;28;20039;-61
2022/02/26 08:17:44;;;;;;;6.33;2.73;;;;;;;;;;4482053;28;20043;-61
2022/02/26 08:19:55;;;;;;;5.88;2.58;;;;;;;;;;4480708;28;20045;-61
2022/02/26 08:22:06;;;;;;;5.10;2.60;;;;;;;;;;4481904;28;20213;-61
2022/02/26 08:24:17;;;;;;;5.85;2.50;;;;;;;;;;4480879;28;20728;-61
2022/02/26 08:26:27;;;;;;;4.83;2.60;;;;;;;;;;4479499;28;20113;-61
2022/02/26 08:28:38;;;;;;;7.00;2.90;;;;;;;;;;4479524;28;20039;-61
2022/02/26 08:30:48;;;;;;;6.53;2.87;;;;;;;;;;4480493;28;20030;-61
2022/02/26 08:32:59;;;;;;;5.97;2.73;;;;;;;;;;4476149;28;43585;-60
2022/02/26 08:35:10;;;;;;;6.33;2.50;;;;;;;;;;4479256;28;20030;-61
2022/02/26 08:37:20;;;;;;;5.18;2.60;;;;;;;;;;4480048;28;20916;-61
2022/02/26 08:39:31;;;;;;;6.63;2.40;;;;;;;;;;4481102;28;20081;-61
2022/02/26 08:41:42;;;;;;;7.30;2.53;;;;;;;;;;4482660;28;20534;-61
2022/02/26 08:43:53;;;;;;;6.35;2.72;;;;;;;;;;4480427;28;21042;-61
2022/02/26 08:46:03;;;;;;;7.50;3.00;;;;;;;;;;4486228;28;20153;-61
2022/02/26 08:48:13;;;;;;;5.23;2.90;;;;;;;;;;4481120;28;20035;-61
2022/02/26 08:50:24;;;;;;;7.07;2.97;;;;;;;;;;4480074;28;20526;-61
2022/02/26 08:52:34;;;;;;;7.20;2.90;;;;;;;;;;4482954;28;20117;-61
2022/02/26 08:54:45;;;;;;;8.43;3.53;;;;;;;;;;4480122;28;20034;-61
2022/02/26 08:56:55;;;;;;;9.50;3.60;;;;;;;;;;4480273;28;20049;-61
2022/02/26 08:59:06;;;;;;;7.47;3.23;;;;;;;;;;4481508;28;20981;-61
2022/02/26 09:01:16;;;;;;;7.67;3.07;;;;;;;;;;4484854;28;20039;-61
2022/02/26 09:03:27;;;;;;;6.60;3.10;;;;;;;;;;4476875;28;20031;-61
2022/02/26 09:05:37;;;;;;;10.40;3.17;;;;;;;;;;4479161;28;20038;-61
2022/02/26 09:07:48;;;;;;;6.63;2.70;;;;;;;;;;4481560;28;20458;-61
2022/02/26 09:09:58;;;;;;;7.67;3.00;;;;;;;;;;4480238;28;20034;-61
2022/02/26 09:12:09;;;;;;;7.60;2.93;;;;;;;;;;4482319;28;20042;-61
2022/02/26 09:14:19;;;;;;;7.40;3.10;;;;;;;;;;4480236;28;20070;-61
2022/02/26 09:16:31;;;;;;;9.37;3.50;;;;;;;;;;4481327;28;20053;-61
2022/02/26 09:18:41;;;;;;;6.45;2.65;;;;;;;;;;4480329;28;20064;-61
2022/02/26 09:20:52;;;;;;;5.97;2.73;;;;;;;;;;4482487;28;20077;-61
2022/02/26 09:23:02;;;;;;;6.37;2.80;;;;;;;;;;4484418;28;20040;-61
2022/02/26 09:25:13;;;;;;;7.23;2.90;;;;;;;;;;4482449;28;20046;-61
2022/02/26 09:27:24;;;;;;;8.63;3.35;;;;;;;;;;4481053;28;20037;-61
2022/02/26 09:29:34;;;;;;;6.13;2.50;;;;;;;;;;4478629;28;20030;-61
2022/02/26 09:31:50;;;;;;;6.90;2.63;;;;;;;;;;4484111;28;20042;-61
2022/02/26 09:34:01;;;;;;;5.20;2.40;;;;;;;;;;4480757;28;20027;-59
2022/02/26 09:36:11;;;;;;;7.03;2.73;;;;;;;;;;4478760;28;20035;-61
2022/02/26 09:38:21;;;;;;;5.03;2.30;;;;;;;;;;4479952;28;20406;-61
2022/02/26 09:40:32;;;;;;;4.30;2.40;;;;;;;;;;4479533;28;20133;-61
2022/02/26 09:42:43;;;;;;;8.93;2.63;;;;;;;;;;4476751;28;20053;-61
2022/02/26 09:44:53;;;;;;;6.83;2.83;;;;;;;;;;4480189;28;20030;-61
2022/02/26 09:47:04;;;;;;;7.67;3.37;;;;;;;;;;4482479;28;20145;-61
2022/02/26 09:49:14;;;;;;;6.80;3.30;;;;;;;;;;4478508;28;20058;-61
2022/02/26 09:51:25;;;;;;;7.10;3.13;;;;;;;;;;4478786;28;20316;-61
2022/02/26 09:53:36;;;;;;;5.77;2.90;;;;;;;;;;4480124;28;20036;-61
2022/02/26 09:55:46;;;;;;;6.73;2.77;;;;;;;;;;4478869;28;20950;-61
2022/02/26 09:57:58;;;;;;;7.27;2.70;;;;;;;;;;4469965;28;20034;-61
2022/02/26 10:00:09;;;;;;;6.22;2.70;;;;;;;;;;4481335;28;20062;-61
2022/02/26 10:02:30;;;;;;;7.93;2.83;;;;;;;;;;4482188;28;20590;-60
2022/02/26 10:04:55;;;;;;;6.43;2.33;;;;;;;;;;4479915;28;20082;-59
2022/02/26 10:07:17;;;;;;;5.65;2.47;;;;;;;;;;4476120;28;20050;-59
2022/02/26 10:09:28;;;;;;;7.45;2.67;;;;;;;;;;4481872;28;20057;-60
2022/02/26 10:11:38;;;;;;;8.03;2.80;;;;;;;;;;4480553;28;22241;-60
2022/02/26 10:13:50;;;;;;;6.80;2.30;;;;;;;;;;4477885;28;20038;-59
2022/02/26 10:16:01;;;;;;;5.93;2.60;;;;;;;;;;4479117;28;20498;-59
2022/02/26 10:18:13;;;;;;;6.07;2.57;;;;;;;;;;4478276;28;20051;-61
2022/02/26 10:20:23;;;;;;;6.40;2.45;;;;;;;;;;4478467;28;20134;-69
2022/02/26 10:22:36;;;;;;;5.17;2.33;;;;;;;;;;4480878;28;20463;-67
2022/02/26 10:24:47;;;;;;;5.95;2.50;;;;;;;;;;4479764;28;20039;-68
2022/02/26 10:27:06;;;;;;;6.88;2.63;;;;;;;;;;4476579;28;20157;-66
2022/02/26 10:29:16;;;;;;;5.63;2.25;;;;;;;;;;4475611;28;20553;-64
2022/02/26 10:32:00;;;;;;;6.15;2.22;;;;;;;;;;4480282;28;20065;-60
2022/02/26 10:34:34;;;;;;;5.57;2.13;;;;;;;;;;4477474;28;20043;-61
2022/02/26 10:37:02;;;;;;;7.47;2.60;;;;;;;;;;4477409;28;20137;-59
2022/02/26 10:39:28;;;;;;;6.82;2.10;;;;;;;;;;4484899;28;20042;-60
2022/02/26 10:41:45;;;;;;;8.18;2.75;;;;;;;;;;4482326;28;20034;-60
2022/02/26 10:43:57;;;;;;;7.38;2.60;;;;;;;;;;4460712;28;20873;-60
2022/02/26 10:46:13;;;;;;;4.70;2.30;;;;;;;;;;4479662;28;20043;-60
2022/02/26 10:48:39;;;;;;;5.93;2.03;;;;;;;;;;4479665;28;20602;-60
2022/02/26 10:50:50;;;;;;;4.40;1.80;;;;;;;;;;4478365;28;20030;-60
2022/02/26 10:53:05;;;;;;;5.57;2.30;;;;;;;;;;4478826;28;20030;-60
2022/02/26 10:55:15;;;;;;;6.05;2.10;;;;;;;;;;4484381;28;20104;-59
2022/02/26 10:57:32;;;;;;;5.63;2.10;;;;;;;;;;4482394;28;20120;-60
2022/02/26 10:59:45;;;;;;;6.05;2.10;;;;;;;;;;4480624;28;20886;-60
2022/02/26 11:02:10;;;;;;;7.88;2.40;;;;;;;;;;4482393;28;20736;-60
2022/02/26 11:04:20;;;;;;;3.85;1.85;;;;;;;;;;4486670;28;20035;-60
2022/02/26 11:06:32;;;;;;;5.60;2.37;;;;;;;;;;4480155;28;29761;-60
2022/02/26 11:08:44;;;;;;;6.15;2.35;;;;;;;;;;4484830;28;20203;-60
2022/02/26 11:10:55;;;;;;;6.63;2.40;;;;;;;;;;4482193;28;20030;-61
2022/02/26 11:13:06;;;;;;;6.18;2.50;;;;;;;;;;4481240;28;20598;-60
2022/02/26 11:15:16;;;;;;;7.37;2.47;;;;;;;;;;4474196;28;20035;-60
2022/02/26 11:17:30;;;;;;;4.60;1.87;;;;;;;;;;4486717;28;20636;-60
2022/02/26 11:19:44;;;;;;;7.28;2.38;;;;;;;;;;4482814;28;20038;-60
2022/02/26 11:21:54;;;;;;;8.15;2.78;;;;;;;;;;4480019;28;20126;-60
2022/02/26 11:24:06;;;;;;;6.37;2.30;;;;;;;;;;4481565;28;20109;-60
2022/02/26 11:26:19;;;;;;;6.68;2.15;;;;;;;;;;4482157;28;20049;-59
2022/02/26 11:28:31;;;;;;;5.90;1.88;;;;;;;;;;4487801;28;20038;-60
2022/02/26 11:30:55;;;;;;;5.72;2.13;;;;;;;;;;4481130;28;20034;-60
2022/02/26 11:33:06;;;;;;;4.60;1.70;;;;;;;;;;4480566;28;20818;-60
2022/02/26 11:35:24;;;;;;;5.55;2.05;;;;;;;;;;4481964;28;20034;-60
2022/02/26 11:37:37;;;;;;;5.53;2.30;;;;;;;;;;4482607;28;20252;-60
2022/02/26 11:39:49;;;;;;;8.50;2.35;;;;;;;;;;4483865;28;20097;-60
2022/02/26 11:42:18;;;;;;;6.38;2.50;;;;;;;;;;4482001;28;20110;-60
2022/02/26 11:44:40;;;;;;;7.38;2.42;;;;;;;;;;4483245;28;20019;-60
2022/02/26 11:47:10;;;;;;;5.55;1.95;;;;;;;;;;4482792;28;20038;-60
2022/02/26 11:49:26;;;;;;;4.88;2.13;;;;;;;;;;4480253;28;20660;-60
2022/02/26 11:51:37;;;;;;;6.40;1.92;;;;;;;;;;4484002;28;20136;-58
2022/02/26 11:53:47;;;;;;;5.53;2.30;;;;;;;;;;4480947;28;20061;-60
2022/02/26 11:56:03;;;;;;;6.03;2.33;;;;;;;;;;4480063;28;20551;-61
2022/02/26 11:58:16;;;;;;;5.63;2.30;;;;;;;;;;4478928;28;20121;-61
2022/02/26 12:00:30;;;;;;;5.72;2.33;;;;;;;;;;4478770;28;20041;-61
2022/02/26 12:02:41;;;;;;;5.10;2.17;;;;;;;;;;4485833;28;20035;-62
2022/02/26 12:04:57;;;;;;;7.10;2.57;;;;;;;;;;4469147;28;20463;-62
2022/02/26 12:07:07;;;;;;;7.15;2.45;;;;;;;;;;4478875;28;20027;-62
2022/02/26 12:09:18;;;;;;;5.67;2.00;;;;;;;;;;4483729;28;20113;-61
2022/02/26 12:11:31;;;;;;;7.03;2.13;;;;;;;;;;4481780;28;20056;-60
2022/02/26 12:13:42;;;;;;;6.03;2.35;;;;;;;;;;4479900;28;20082;-62
2022/02/26 12:16:08;;;;;;;5.80;2.22;;;;;;;;;;4482956;28;20665;-60
2022/02/26 12:18:22;;;;;;;5.68;1.88;;;;;;;;;;4480304;28;20050;-60
2022/02/26 12:20:33;;;;;;;4.57;1.80;;;;;;;;;;4482413;28;20086;-61
2022/02/26 12:22:45;;;;;;;5.63;1.93;;;;;;;;;;4482461;28;20109;-61
2022/02/26 12:24:55;;;;;;;3.63;1.70;;;;;;;;;;4481750;28;20034;-60
2022/02/26 12:27:07;;;;;;;4.82;1.60;;;;;;;;;;4480045;28;20035;-60
2022/02/26 12:29:40;;;;;;;5.35;2.00;;;;;;;;;;4480248;28;20161;-59
2022/02/26 12:32:17;;;;;;;7.97;2.40;;;;;;;;;;4480391;28;20085;-59
2022/02/26 12:34:29;;;;;;;6.03;1.85;;;;;;;;;;4479832;28;20057;-59
2022/02/26 12:37:09;;;;;;;6.03;1.80;;;;;;;;;;4480829;28;20034;-59
2022/02/26 12:39:28;;;;;;;3.80;1.25;;;;;;;;;;4482703;28;20052;-59
2022/02/26 12:41:40;;;;;;;7.55;2.03;;;;;;;;;;4481169;28;20030;-59
2022/02/26 12:43:51;;;;;;;3.58;1.58;;;;;;;;;;4482313;28;20094;-59
2022/02/26 12:46:02;;;;;;;;;;;;;;;;;;4483866;28;20077;-60
2022/02/26 12:48:13;;;;;;;5.13;1.70;;;;;;;;;;4481688;28;19969;-58
2022/02/26 12:50:25;;;;;;;6.20;1.77;;;;;;;;;;4475039;28;20138;-60
2022/02/26 12:52:38;;;;;;;4.18;1.60;;;;;;;;;;4481692;28;20578;-59
2022/02/26 12:54:48;;;;;;;6.07;1.80;;;;;;;;;;4480241;28;20055;-59
2022/02/26 12:56:59;;;;;;;4.67;1.67;;;;;;;;;;4479967;28;20026;-59
2022/02/26 12:59:14;;;;;;;5.57;1.90;;;;;;;;;;4470370;28;20088;-58
2022/02/26 13:01:24;;;;;;;3.75;1.70;;;;;;;;;;4480717;28;20042;-59
2022/02/26 13:03:35;;;;;;;5.67;1.93;;;;;;;;;;4484104;28;20030;-59
2022/02/26 13:05:46;;;;;;;7.53;2.10;;;;;;;;;;4483439;28;29773;-59
2022/02/26 13:08:00;;;;;;;5.83;1.70;;;;;;;;;;4479214;28;20043;-59
2022/02/26 13:10:10;;;;;;;5.82;1.90;;;;;;;;;;4470071;28;20034;-59
2022/02/26 13:12:33;;;;;;;4.20;1.70;;;;;;;;;;4480429;28;20030;-59